Time;durP1;ratioP1;P1;durP2;ratioP2;P2;SDS_P1;SDS_P2;PMS_P1;PMS_P2;Temp;Humidity;BMP_temperature;BMP_pressure;BME280_temperature;BME280_humidity;BME280_pressure;Samples;Min_cycle;Max_cycle;Signal;HPM_P1;HPM_P2
2023/12/02 00:02:14;;;;;;;1.88;0.75;;;;;;;;;;5111265;28;20055;-69
2023/12/02 00:04:42;;;;;;;7.53;0.85;;;;;;;;;;5110122;28;20055;-69
2023/12/02 00:07:10;;;;;;;1.83;0.60;;;;;;;;;;5095023;28;20071;-71
2023/12/02 00:09:37;;;;;;;0.98;0.50;;;;;;;;;;5110666;28;20123;-71
2023/12/02 00:12:03;;;;;;;1.55;0.70;;;;;;;;;;5109818;28;20412;-71
2023/12/02 00:14:30;;;;;;;2.70;0.60;;;;;;;;;;5097481;28;20461;-70
2023/12/02 00:16:58;;;;;;;0.82;0.60;;;;;;;;;;5089952;28;20572;-74
2023/12/02 00:19:25;;;;;;;2.03;0.70;;;;;;;;;;5098867;28;20044;-69
2023/12/02 00:21:51;;;;;;;5.85;0.60;;;;;;;;;;5089911;28;20361;-69
2023/12/02 00:24:18;;;;;;;5.13;0.85;;;;;;;;;;5109532;28;20047;-70
2023/12/02 00:26:47;;;;;;;2.67;0.75;;;;;;;;;;5106586;28;20115;-69
2023/12/02 00:29:15;;;;;;;1.50;0.65;;;;;;;;;;5103576;28;20046;-70
2023/12/02 00:31:41;;;;;;;2.63;0.60;;;;;;;;;;5093134;28;20051;-68
2023/12/02 00:34:07;;;;;;;2.10;0.80;;;;;;;;;;5107838;28;20061;-70
2023/12/02 00:36:33;;;;;;;8.10;0.88;;;;;;;;;;5087820;28;20051;-71
2023/12/02 00:38:59;;;;;;;3.25;0.77;;;;;;;;;;5106545;28;20039;-70
2023/12/02 00:41:25;;;;;;;1.35;0.52;;;;;;;;;;5107476;28;20419;-70
2023/12/02 00:43:51;;;;;;;2.30;0.70;;;;;;;;;;5102509;28;20055;-69
2023/12/02 00:46:18;;;;;;;1.00;0.75;;;;;;;;;;5101659;28;20052;-69
2023/12/02 00:48:45;;;;;;;2.42;0.70;;;;;;;;;;5102892;28;20525;-69
2023/12/02 00:51:11;;;;;;;2.35;0.70;;;;;;;;;;5112421;27;20475;-69
2023/12/02 00:53:37;;;;;;;2.35;0.70;;;;;;;;;;5108549;27;20147;-71
2023/12/02 00:56:06;;;;;;;2.40;0.75;;;;;;;;;;5108974;28;20096;-72
2023/12/02 00:58:33;;;;;;;2.42;0.90;;;;;;;;;;5098394;28;20040;-68
2023/12/02 01:00:59;;;;;;;2.25;0.80;;;;;;;;;;5108043;28;20485;-68
2023/12/02 01:03:28;;;;;;;1.10;0.60;;;;;;;;;;5107619;28;20040;-69
2023/12/02 01:05:54;;;;;;;1.02;0.63;;;;;;;;;;5107024;28;20044;-68
2023/12/02 01:08:21;;;;;;;1.67;0.82;;;;;;;;;;5086811;28;20047;-72
2023/12/02 01:10:47;;;;;;;2.55;0.55;;;;;;;;;;5090652;28;20132;-69
2023/12/02 01:13:13;;;;;;;0.75;0.63;;;;;;;;;;5081422;28;20047;-68
2023/12/02 01:15:39;;;;;;;2.08;0.77;;;;;;;;;;5103578;28;20133;-70
2023/12/02 01:18:05;;;;;;;0.80;0.60;;;;;;;;;;5100774;28;20116;-70
2023/12/02 01:20:32;;;;;;;0.93;0.70;;;;;;;;;;5088810;28;20051;-69
2023/12/02 01:23:03;;;;;;;1.30;0.68;;;;;;;;;;5111157;28;20525;-71
2023/12/02 01:25:30;;;;;;;2.22;0.70;;;;;;;;;;5110300;27;20106;-69
2023/12/02 01:27:56;;;;;;;0.73;0.55;;;;;;;;;;5086566;28;20063;-70
2023/12/02 01:30:22;;;;;;;2.55;0.80;;;;;;;;;;5106587;28;20047;-69
2023/12/02 01:32:48;;;;;;;4.30;0.80;;;;;;;;;;5088538;28;20047;-69
2023/12/02 01:35:15;;;;;;;0.70;0.65;;;;;;;;;;5106521;28;20054;-69
2023/12/02 01:37:41;;;;;;;2.42;0.90;;;;;;;;;;5107080;28;20057;-68
2023/12/02 01:40:07;;;;;;;3.50;0.70;;;;;;;;;;5105706;28;20422;-70
2023/12/02 01:42:35;;;;;;;2.20;0.70;;;;;;;;;;5108171;28;20059;-68
2023/12/02 01:45:01;;;;;;;1.27;0.57;;;;;;;;;;5087438;28;20051;-70
2023/12/02 01:47:28;;;;;;;4.25;0.80;;;;;;;;;;5106693;28;20440;-67
2023/12/02 01:50:01;;;;;;;1.10;0.73;;;;;;;;;;5083340;28;20575;-69
2023/12/02 01:52:27;;;;;;;1.92;0.73;;;;;;;;;;5105107;28;20051;-67
2023/12/02 01:54:54;;;;;;;0.60;0.60;;;;;;;;;;5109487;28;20039;-69
2023/12/02 01:57:28;;;;;;;1.63;0.63;;;;;;;;;;5103910;28;20052;-68
2023/12/02 01:59:55;;;;;;;2.22;0.60;;;;;;;;;;5105583;28;20043;-68
2023/12/02 02:02:21;;;;;;;1.13;0.60;;;;;;;;;;5088197;28;20130;-69
2023/12/02 02:04:49;;;;;;;2.45;0.77;;;;;;;;;;5084252;28;20051;-69
2023/12/02 02:07:17;;;;;;;3.03;0.90;;;;;;;;;;5101670;28;20143;-68
2023/12/02 02:09:49;;;;;;;1.83;0.50;;;;;;;;;;5103076;27;20052;-73
2023/12/02 02:12:16;;;;;;;3.72;0.65;;;;;;;;;;5082827;28;20051;-67
2023/12/02 02:14:44;;;;;;;1.15;0.60;;;;;;;;;;5100123;28;20063;-67
2023/12/02 02:17:12;;;;;;;4.57;0.80;;;;;;;;;;5100407;28;20059;-70
2023/12/02 02:19:37;;;;;;;1.58;0.73;;;;;;;;;;5103896;28;20126;-70
2023/12/02 02:22:04;;;;;;;3.30;0.85;;;;;;;;;;5107331;28;20043;-69
2023/12/02 02:24:32;;;;;;;8.10;0.90;;;;;;;;;;5082273;28;20055;-69
2023/12/02 02:27:01;;;;;;;0.95;0.60;;;;;;;;;;5105489;28;20051;-69
2023/12/02 02:29:29;;;;;;;1.00;0.60;;;;;;;;;;5105114;27;20572;-69
2023/12/02 02:32:37;;;;;;;0.75;0.60;;;;;;;;;;5101732;28;20051;-69
2023/12/02 02:36:18;;;;;;;2.05;0.75;;;;;;;;;;5092298;28;20514;-68
2023/12/02 02:39:57;;;;;;;0.98;0.50;;;;;;;;;;5103805;28;20095;-69
2023/12/02 02:43:38;;;;;;;1.00;0.70;;;;;;;;;;5096918;28;20078;-68
2023/12/02 02:47:18;;;;;;;1.25;0.60;;;;;;;;;;5103067;28;20158;-69
2023/12/02 02:50:59;;;;;;;2.30;0.70;;;;;;;;;;5105273;28;20099;-70
2023/12/02 02:54:39;;;;;;;1.67;0.60;;;;;;;;;;5099596;28;20477;-69
2023/12/02 02:58:20;;;;;;;1.85;0.60;;;;;;;;;;5099211;28;20055;-69
2023/12/02 03:02:00;;;;;;;3.88;0.80;;;;;;;;;;5099529;28;20365;-68
2023/12/02 03:05:41;;;;;;;2.58;0.80;;;;;;;;;;5100789;28;20139;-68
2023/12/02 03:09:22;;;;;;;2.33;0.75;;;;;;;;;;5101598;28;20510;-70
2023/12/02 03:13:02;;;;;;;4.75;1.00;;;;;;;;;;5101413;28;20412;-69
2023/12/02 03:16:43;;;;;;;1.05;0.70;;;;;;;;;;5100691;28;20069;-68
2023/12/02 03:20:23;;;;;;;1.98;0.80;;;;;;;;;;5105479;28;20039;-69
2023/12/02 03:24:03;;;;;;;4.05;1.00;;;;;;;;;;5096588;28;20047;-70
2023/12/02 03:27:47;;;;;;;3.75;1.27;;;;;;;;;;5101782;28;20621;-68
2023/12/02 03:31:27;;;;;;;1.00;0.70;;;;;;;;;;5103319;28;20043;-68
2023/12/02 03:35:08;;;;;;;1.08;0.70;;;;;;;;;;5102836;28;20089;-68
2023/12/02 03:38:48;;;;;;;1.60;0.80;;;;;;;;;;5106562;28;20039;-69
2023/12/02 03:42:29;;;;;;;3.40;0.65;;;;;;;;;;5103354;28;20153;-68
2023/12/02 03:46:10;;;;;;;1.20;0.70;;;;;;;;;;5100728;28;20484;-69
2023/12/02 03:49:50;;;;;;;1.33;0.57;;;;;;;;;;5108238;28;20044;-69
2023/12/02 03:53:34;;;;;;;1.95;0.80;;;;;;;;;;5115503;27;20165;-70
2023/12/02 03:57:11;;;;;;;8.20;0.73;;;;;;;;;;5100566;28;20118;-69
2023/12/02 04:00:51;;;;;;;1.67;0.68;;;;;;;;;;5103308;28;20895;-69
2023/12/02 04:04:32;;;;;;;4.07;0.98;;;;;;;;;;5097545;28;20071;-69
2023/12/02 04:08:12;;;;;;;1.60;0.80;;;;;;;;;;5106710;28;20051;-69
2023/12/02 04:11:52;;;;;;;1.55;0.85;;;;;;;;;;5103610;28;20047;-68
2023/12/02 04:15:33;;;;;;;2.70;0.77;;;;;;;;;;5101093;28;20130;-69
2023/12/02 04:19:13;;;;;;;5.65;0.98;;;;;;;;;;5106145;28;20105;-70
2023/12/02 04:22:53;;;;;;;3.05;0.80;;;;;;;;;;5103762;28;20110;-70
2023/12/02 04:26:34;;;;;;;1.35;0.70;;;;;;;;;;5102645;28;20048;-71
2023/12/02 04:30:14;;;;;;;2.22;0.88;;;;;;;;;;5094063;28;20689;-70
2023/12/02 04:33:55;;;;;;;1.35;0.70;;;;;;;;;;5095098;28;20040;-70
2023/12/02 04:37:36;;;;;;;3.05;0.80;;;;;;;;;;5100155;28;20051;-69
2023/12/02 04:41:17;;;;;;;1.15;0.63;;;;;;;;;;5098654;28;20043;-68
2023/12/02 04:44:57;;;;;;;1.85;0.77;;;;;;;;;;5098714;28;20052;-67
2023/12/02 04:48:39;;;;;;;1.50;0.82;;;;;;;;;;5107751;28;20047;-69
2023/12/02 04:52:19;;;;;;;1.60;0.80;;;;;;;;;;5105365;28;20468;-69
2023/12/02 04:56:01;;;;;;;2.42;1.00;;;;;;;;;;5105413;28;20039;-70
2023/12/02 04:59:41;;;;;;;1.67;1.15;;;;;;;;;;5103112;28;20267;-69
2023/12/02 05:03:23;;;;;;;2.70;0.68;;;;;;;;;;5107634;28;20051;-68
2023/12/02 05:07:04;;;;;;;2.35;0.90;;;;;;;;;;5096184;28;20047;-70
2023/12/02 05:10:45;;;;;;;6.70;1.10;;;;;;;;;;5097274;27;20074;-69
2023/12/02 05:14:26;;;;;;;3.65;1.20;;;;;;;;;;5104573;28;20122;-69
2023/12/02 05:18:06;;;;;;;2.33;1.00;;;;;;;;;;5102366;28;20741;-70
2023/12/02 05:21:48;;;;;;;3.38;0.93;;;;;;;;;;5097670;28;20048;-69
2023/12/02 05:25:28;;;;;;;2.42;0.90;;;;;;;;;;5104961;28;20136;-69
2023/12/02 05:29:10;;;;;;;2.83;0.90;;;;;;;;;;5105239;28;20122;-69
2023/12/02 05:32:51;;;;;;;2.10;0.88;;;;;;;;;;5101314;28;20055;-70
2023/12/02 05:36:31;;;;;;;3.00;1.05;;;;;;;;;;5107627;28;20415;-68
2023/12/02 05:40:12;;;;;;;2.40;0.80;;;;;;;;;;5100683;27;20107;-70
2023/12/02 05:43:53;;;;;;;3.42;0.90;;;;;;;;;;5097784;28;20051;-71
2023/12/02 05:47:33;;;;;;;3.00;1.00;;;;;;;;;;5101355;28;20046;-68
2023/12/02 05:51:15;;;;;;;3.25;0.93;;;;;;;;;;5101427;28;20386;-70
2023/12/02 05:54:55;;;;;;;2.10;0.98;;;;;;;;;;5103555;28;20039;-68
2023/12/02 05:58:37;;;;;;;2.50;1.10;;;;;;;;;;5102472;28;20053;-69
2023/12/02 06:02:17;;;;;;;1.02;0.90;;;;;;;;;;5104866;28;20152;-69
2023/12/02 06:05:59;;;;;;;1.98;0.77;;;;;;;;;;5106066;28;20040;-69
2023/12/02 06:09:39;;;;;;;1.73;0.88;;;;;;;;;;5103502;28;20101;-70
2023/12/02 06:13:19;;;;;;;3.80;1.08;;;;;;;;;;5100889;28;20788;-70
2023/12/02 06:17:01;;;;;;;3.30;1.00;;;;;;;;;;5099906;28;20039;-69
2023/12/02 06:20:41;;;;;;;1.55;0.80;;;;;;;;;;5103238;28;20075;-70
2023/12/02 06:24:22;;;;;;;1.67;0.80;;;;;;;;;;5101810;28;20507;-70
2023/12/02 06:28:02;;;;;;;4.32;1.08;;;;;;;;;;5099229;28;20047;-69
2023/12/02 06:31:43;;;;;;;2.22;1.00;;;;;;;;;;5099171;28;20051;-69
2023/12/02 06:35:26;;;;;;;1.58;0.85;;;;;;;;;;5104530;28;20048;-69
2023/12/02 06:39:07;;;;;;;3.97;0.98;;;;;;;;;;5102551;28;20649;-69
2023/12/02 06:42:49;;;;;;;1.60;1.02;;;;;;;;;;5097952;28;20059;-69
2023/12/02 06:46:32;;;;;;;3.53;1.05;;;;;;;;;;5099160;28;20058;-70
2023/12/02 06:50:12;;;;;;;2.47;1.20;;;;;;;;;;5084278;28;20575;-70
2023/12/02 06:53:53;;;;;;;3.72;1.50;;;;;;;;;;5089252;28;20039;-68
2023/12/02 06:57:35;;;;;;;2.45;1.30;;;;;;;;;;5089465;28;20052;-68
2023/12/02 07:01:17;;;;;;;3.65;1.42;;;;;;;;;;5090287;28;20055;-71
2023/12/02 07:04:59;;;;;;;3.00;1.30;;;;;;;;;;5092694;28;20406;-70
2023/12/02 07:08:40;;;;;;;2.55;1.40;;;;;;;;;;5089326;28;20134;-71
2023/12/02 07:12:20;;;;;;;6.10;1.77;;;;;;;;;;5092455;28;20043;-73
2023/12/02 07:16:01;;;;;;;2.78;1.42;;;;;;;;;;5084821;28;20146;-69
2023/12/02 07:19:41;;;;;;;2.47;1.50;;;;;;;;;;5092695;28;20055;-71
2023/12/02 07:23:28;;;;;;;5.60;1.45;;;;;;;;;;5088955;28;20571;-72
2023/12/02 07:27:07;;;;;;;6.13;1.52;;;;;;;;;;5089953;28;20060;-69
2023/12/02 07:30:48;;;;;;;3.28;1.50;;;;;;;;;;5092302;28;20136;-74
2023/12/02 07:34:30;;;;;;;6.18;1.70;;;;;;;;;;5095982;28;20063;-70
2023/12/02 07:38:10;;;;;;;4.30;1.50;;;;;;;;;;5093943;28;20097;-71
2023/12/02 07:41:52;;;;;;;3.75;1.30;;;;;;;;;;5090742;28;20073;-70
2023/12/02 07:45:36;;;;;;;3.95;1.63;;;;;;;;;;5091959;28;20055;-69
2023/12/02 07:49:15;;;;;;;4.50;1.98;;;;;;;;;;5092114;28;20051;-71
2023/12/02 07:52:56;;;;;;;4.07;1.50;;;;;;;;;;5093444;28;20036;-69
2023/12/02 07:56:37;;;;;;;6.28;1.95;;;;;;;;;;5089201;28;20051;-70
2023/12/02 08:00:16;;;;;;;6.20;1.90;;;;;;;;;;5092969;28;20991;-72
2023/12/02 08:03:57;;;;;;;4.32;1.30;;;;;;;;;;5093789;28;20414;-69
2023/12/02 08:07:37;;;;;;;2.80;1.20;;;;;;;;;;5093006;28;20058;-70
2023/12/02 08:11:19;;;;;;;2.78;1.20;;;;;;;;;;5098914;27;20056;-77
2023/12/02 08:15:00;;;;;;;5.95;1.90;;;;;;;;;;5089963;28;20052;-73
2023/12/02 08:18:42;;;;;;;2.55;1.38;;;;;;;;;;5087087;28;20055;-74
2023/12/02 08:22:24;;;;;;;4.20;1.67;;;;;;;;;;5088785;28;20044;-74
2023/12/02 08:26:03;;;;;;;9.02;1.90;;;;;;;;;;5086684;28;20052;-74
2023/12/02 08:29:46;;;;;;;5.57;1.70;;;;;;;;;;5089922;28;20429;-76
2023/12/02 08:33:29;;;;;;;5.38;2.08;;;;;;;;;;5090640;28;20147;-73
2023/12/02 08:37:11;;;;;;;3.97;1.75;;;;;;;;;;5089696;28;20040;-72
2023/12/02 08:40:51;;;;;;;7.00;1.60;;;;;;;;;;5090030;28;20052;-70
2023/12/02 08:44:31;;;;;;;4.57;1.40;;;;;;;;;;5090624;28;20055;-75
2023/12/02 08:47:33;;;;;;;5.15;1.35;;;;;;;;;;5090521;28;20062;-69
2023/12/02 08:50:39;;;;;;;2.60;1.30;;;;;;;;;;5074506;28;20051;-72
2023/12/02 08:54:21;;;;;;;3.38;1.52;;;;;;;;;;5095991;28;20104;-74
2023/12/02 08:58:02;;;;;;;5.80;1.90;;;;;;;;;;5092954;28;20047;-75
2023/12/02 09:01:41;;;;;;;3.53;1.88;;;;;;;;;;5091810;28;20093;-77
2023/12/02 09:05:23;;;;;;;4.97;2.67;;;;;;;;;;5091217;28;20078;-76
2023/12/02 09:09:03;;;;;;;3.25;1.52;;;;;;;;;;5091648;28;20070;-72
2023/12/02 09:12:45;;;;;;;2.83;1.60;;;;;;;;;;5091808;28;20330;-76
2023/12/02 09:16:35;;;;;;;4.57;1.33;;;;;;;;;;5095564;28;20044;-78
2023/12/02 09:20:11;;;;;;;3.75;1.83;;;;;;;;;;5092520;28;20136;-78
2023/12/02 09:23:53;;;;;;;3.35;1.70;;;;;;;;;;5099882;28;20159;-77
2023/12/02 09:27:33;;;;;;;5.28;2.38;;;;;;;;;;5090800;28;20116;-74
2023/12/02 09:31:13;;;;;;;7.60;1.92;;;;;;;;;;5092656;28;20388;-71
2023/12/02 09:35:17;;;;;;;3.53;1.30;;;;;;;;;;5096969;28;20051;-70
2023/12/02 09:38:57;;;;;;;4.30;1.40;;;;;;;;;;5009724;28;20034;-72
2023/12/02 09:42:37;;;;;;;4.25;2.55;;;;;;;;;;5010694;28;20052;-75
2023/12/02 09:46:27;;;;;;;1.85;1.23;;;;;;;;;;5009668;28;20057;-75
2023/12/02 09:49:46;;;;;;;2.70;1.45;;;;;;;;;;5008089;28;20045;-75
2023/12/02 09:53:06;;;;;;;3.92;1.60;;;;;;;;;;5009592;28;20107;-76
2023/12/02 09:56:48;;;;;;;4.65;1.67;;;;;;;;;;5010002;28;20049;-72
2023/12/02 10:00:24;;;;;;;7.10;2.28;;;;;;;;;;5007718;28;20064;-74
2023/12/02 10:03:32;;;;;;;3.27;1.73;;;;;;;;;;5010328;28;20050;-74
2023/12/02 10:06:47;;;;;;;4.50;1.98;;;;;;;;;;5009315;28;20080;-76
2023/12/02 10:10:46;;;;;;;5.40;1.90;;;;;;;;;;5016334;28;20061;-77
2023/12/02 10:14:28;;;;;;;1.83;1.23;;;;;;;;;;5093870;28;20067;-74
2023/12/02 10:18:10;;;;;;;5.90;1.40;;;;;;;;;;5075875;28;20043;-76
2023/12/02 10:21:51;;;;;;;5.35;1.10;;;;;;;;;;5093958;28;20044;-72
2023/12/02 10:25:53;;;;;;;2.33;1.13;;;;;;;;;;5080707;28;20055;-75
2023/12/02 10:29:51;;;;;;;4.45;1.00;;;;;;;;;;5087793;28;20076;-73
2023/12/02 10:33:30;;;;;;;3.88;1.10;;;;;;;;;;5087313;28;20043;-73
2023/12/02 10:37:11;;;;;;;8.80;1.10;;;;;;;;;;5088977;28;20043;-75
2023/12/02 10:40:51;;;;;;;3.70;1.00;;;;;;;;;;5101696;28;20134;-73
2023/12/02 10:44:35;;;;;;;6.53;1.17;;;;;;;;;;5093969;28;20519;-72
2023/12/02 10:47:38;;;;;;;3.17;1.00;;;;;;;;;;5098251;27;20052;-73
2023/12/02 10:50:12;;;;;;;2.35;1.00;;;;;;;;;;5108507;27;20475;-72
2023/12/02 10:52:42;;;;;;;2.60;1.02;;;;;;;;;;5110375;28;20039;-72
2023/12/02 10:55:10;;;;;;;1.88;0.93;;;;;;;;;;5110463;27;20055;-72
2023/12/02 10:57:38;;;;;;;3.20;0.75;;;;;;;;;;5106367;27;20567;-80
2023/12/02 11:00:06;;;;;;;2.42;0.50;;;;;;;;;;5108727;28;20054;-76
2023/12/02 11:03:05;;;;;;;3.00;0.90;;;;;;;;;;5108974;28;20062;-80
2023/12/02 11:05:59;;;;;;;2.67;0.90;;;;;;;;;;5108002;28;20564;-76
2023/12/02 11:08:47;;;;;;;2.60;0.88;;;;;;;;;;5096435;28;20092;-75
2023/12/02 11:11:27;;;;;;;3.33;0.90;;;;;;;;;;5093147;28;20043;-77
2023/12/02 11:13:57;;;;;;;2.17;0.98;;;;;;;;;;5110449;28;20145;-73
2023/12/02 11:16:35;;;;;;;1.00;0.65;;;;;;;;;;5109269;28;20042;-74
2023/12/02 11:19:34;;;;;;;1.75;0.95;;;;;;;;;;5108746;28;20901;-75
2023/12/02 11:22:20;;;;;;;0.88;0.60;;;;;;;;;;5051225;28;20405;-73
2023/12/02 11:25:14;;;;;;;1.30;0.52;;;;;;;;;;5046889;28;20044;-72
2023/12/02 11:27:53;;;;;;;1.35;0.63;;;;;;;;;;5046409;28;20068;-72
2023/12/02 11:30:47;;;;;;;3.33;0.70;;;;;;;;;;5023312;28;20745;-74
2023/12/02 11:33:22;;;;;;;3.88;1.00;;;;;;;;;;5040041;28;21045;-72
2023/12/02 11:36:12;;;;;;;0.85;0.57;;;;;;;;;;5044389;28;20041;-74
2023/12/02 11:39:03;;;;;;;1.27;0.60;;;;;;;;;;5025796;28;20045;-73
2023/12/02 11:41:48;;;;;;;0.68;0.47;;;;;;;;;;5040171;28;20086;-73
2023/12/02 11:44:20;;;;;;;;;;;;;;;;;;5041036;28;20052;-72
2023/12/02 11:47:11;;;;;;;2.05;0.77;;;;;;;;;;5036359;28;20344;-77
2023/12/02 11:50:18;;;;;;;1.70;0.68;;;;;;;;;;5032168;28;20045;-75
2023/12/02 11:52:57;;;;;;;1.05;0.55;;;;;;;;;;5045330;28;20473;-73
2023/12/02 11:55:35;;;;;;;0.95;0.60;;;;;;;;;;5040451;28;20056;-72
2023/12/02 11:58:18;;;;;;;1.20;0.70;;;;;;;;;;5046619;28;20679;-71
2023/12/02 12:00:56;;;;;;;3.47;0.80;;;;;;;;;;5103544;28;20043;-72
2023/12/02 12:03:51;;;;;;;3.17;0.88;;;;;;;;;;5099947;28;20299;-71
2023/12/02 12:06:42;;;;;;;0.85;0.60;;;;;;;;;;5099568;28;20055;-73
2023/12/02 12:09:27;;;;;;;0.60;0.25;;;;;;;;;;5102513;28;20044;-74
2023/12/02 12:12:06;;;;;;;0.55;0.40;;;;;;;;;;5108307;28;20203;-73
2023/12/02 12:14:36;;;;;;;0.95;0.47;;;;;;;;;;5107210;28;20066;-74
2023/12/02 12:17:03;;;;;;;1.52;0.40;;;;;;;;;;5088032;28;20149;-72
2023/12/02 12:19:30;;;;;;;1.38;0.50;;;;;;;;;;5105191;28;20357;-70
2023/12/02 12:21:56;;;;;;;1.00;0.60;;;;;;;;;;5104425;28;20040;-71
2023/12/02 12:24:22;;;;;;;7.47;1.27;;;;;;;;;;5095124;28;20138;-71
2023/12/02 12:26:49;;;;;;;2.35;1.20;;;;;;;;;;5108368;28;20051;-72
2023/12/02 12:29:15;;;;;;;2.83;1.30;;;;;;;;;;5106301;28;20052;-72
2023/12/02 12:31:42;;;;;;;3.97;1.00;;;;;;;;;;5098983;28;20713;-70
2023/12/02 12:34:12;;;;;;;1.83;0.95;;;;;;;;;;5097603;28;20099;-70
2023/12/02 12:36:41;;;;;;;2.25;0.95;;;;;;;;;;5100495;28;20241;-70
2023/12/02 12:39:07;;;;;;;2.30;1.05;;;;;;;;;;5101525;28;20380;-70
2023/12/02 12:41:38;;;;;;;3.50;1.30;;;;;;;;;;5106148;28;21609;-70
2023/12/02 12:44:05;;;;;;;4.05;1.30;;;;;;;;;;5101021;28;20052;-74
2023/12/02 12:46:32;;;;;;;2.10;1.50;;;;;;;;;;5102686;28;20357;-72
2023/12/02 12:49:38;;;;;;;5.28;2.30;;;;;;;;;;5062171;28;20532;-69
2023/12/02 12:53:21;;;;;;;5.00;2.70;;;;;;;;;;5102734;28;20127;-72
2023/12/02 12:56:41;;;;;;;6.93;2.90;;;;;;;;;;5103062;28;20043;-75
2023/12/02 13:00:22;;;;;;;3.28;1.40;;;;;;;;;;5101787;28;20645;-75
2023/12/02 13:03:41;;;;;;;2.22;1.00;;;;;;;;;;5103236;28;20100;-74
2023/12/02 13:07:31;;;;;;;2.92;1.20;;;;;;;;;;5099268;28;20047;-73
2023/12/02 13:10:41;;;;;;;3.97;1.00;;;;;;;;;;5105953;28;20043;-76
2023/12/02 13:14:23;;;;;;;2.00;0.90;;;;;;;;;;5103537;28;20058;-75
2023/12/02 13:18:03;;;;;;;3.42;0.90;;;;;;;;;;5100644;28;20412;-73
2023/12/02 13:21:44;;;;;;;2.38;1.20;;;;;;;;;;5104282;28;20483;-75
2023/12/02 13:25:33;;;;;;;2.13;0.95;;;;;;;;;;5102696;28;20055;-75
2023/12/02 13:29:14;;;;;;;4.32;1.10;;;;;;;;;;5102436;28;20112;-73
2023/12/02 13:32:54;;;;;;;3.08;1.27;;;;;;;;;;5096230;28;20838;-73
2023/12/02 13:36:36;;;;;;;2.97;1.25;;;;;;;;;;5101577;28;20032;-74
2023/12/02 13:40:18;;;;;;;2.33;1.20;;;;;;;;;;5093602;28;20044;-75
2023/12/02 13:43:57;;;;;;;2.92;1.10;;;;;;;;;;5095874;28;20043;-76
2023/12/02 13:47:23;;;;;;;5.10;1.05;;;;;;;;;;5100661;28;20065;-76
2023/12/02 13:50:52;;;;;;;1.60;1.10;;;;;;;;;;5102991;28;20058;-74
2023/12/02 13:54:48;;;;;;;1.85;1.10;;;;;;;;;;5101878;28;20044;-74
2023/12/02 13:58:14;;;;;;;3.25;1.10;;;;;;;;;;5104294;28;20050;-74
2023/12/02 14:02:05;;;;;;;2.47;1.00;;;;;;;;;;5102569;28;20043;-71
2023/12/02 14:05:31;;;;;;;1.88;0.98;;;;;;;;;;5099969;28;20490;-79
2023/12/02 14:09:13;;;;;;;2.83;1.08;;;;;;;;;;5099923;28;20055;-75
2023/12/02 14:13:03;;;;;;;2.15;0.95;;;;;;;;;;5103254;28;20047;-74
2023/12/02 14:16:36;;;;;;;2.75;0.93;;;;;;;;;;5099317;28;20383;-74
2023/12/02 14:20:04;;;;;;;3.40;1.05;;;;;;;;;;5104730;28;20047;-74
2023/12/02 14:23:46;;;;;;;2.08;1.20;;;;;;;;;;5102331;28;20051;-76
2023/12/02 14:27:07;;;;;;;1.23;0.80;;;;;;;;;;5098877;28;20444;-76
2023/12/02 14:30:21;;;;;;;1.73;1.00;;;;;;;;;;5105597;28;20056;-74
2023/12/02 14:33:35;;;;;;;1.52;0.90;;;;;;;;;;5096734;28;20047;-74
2023/12/02 14:36:53;;;;;;;1.55;1.00;;;;;;;;;;5105973;28;20043;-72
2023/12/02 14:40:35;;;;;;;5.80;1.00;;;;;;;;;;5104974;28;20093;-75
2023/12/02 14:44:32;;;;;;;2.70;1.10;;;;;;;;;;5101699;28;20047;-76
2023/12/02 14:47:53;;;;;;;;;;;;;;;;;;5104595;28;20396;-75
2023/12/02 14:51:34;;;;;;;2.63;0.95;;;;;;;;;;5105373;28;20007;-74
2023/12/02 14:55:16;;;;;;;2.17;1.10;;;;;;;;;;5101340;28;20691;-74
2023/12/02 14:58:59;;;;;;;1.48;1.00;;;;;;;;;;5098060;28;20032;-74
2023/12/02 15:02:52;;;;;;;1.23;1.00;;;;;;;;;;5091530;28;20070;-73
2023/12/02 15:06:32;;;;;;;2.80;0.93;;;;;;;;;;5095565;28;20126;-73
2023/12/02 15:10:12;;;;;;;2.60;1.00;;;;;;;;;;5104313;28;20055;-72
2023/12/02 15:13:53;;;;;;;3.10;1.20;;;;;;;;;;5099605;28;20132;-73
2023/12/02 15:17:36;;;;;;;2.35;1.20;;;;;;;;;;5109588;28;20333;-79
2023/12/02 15:21:25;;;;;;;3.63;1.88;;;;;;;;;;5092450;28;20476;-78
2023/12/02 15:25:06;;;;;;;3.92;1.40;;;;;;;;;;5102258;28;20083;-75
2023/12/02 15:28:30;;;;;;;3.85;1.55;;;;;;;;;;5100033;28;20083;-75
2023/12/02 15:32:13;;;;;;;3.63;1.15;;;;;;;;;;5090032;28;21045;-74
2023/12/02 15:35:53;;;;;;;3.85;1.00;;;;;;;;;;5095241;28;20051;-76
2023/12/02 15:39:35;;;;;;;2.10;1.00;;;;;;;;;;5104932;28;20051;-75
2023/12/02 15:43:15;;;;;;;5.10;1.05;;;;;;;;;;5100016;28;20130;-76
2023/12/02 15:46:58;;;;;;;13.15;1.48;;;;;;;;;;5095072;28;20329;-75
2023/12/02 15:50:38;;;;;;;4.10;0.88;;;;;;;;;;5094364;28;20095;-77
2023/12/02 15:54:21;;;;;;;2.22;0.88;;;;;;;;;;5096489;28;20063;-77
2023/12/02 15:58:01;;;;;;;2.72;1.02;;;;;;;;;;5092952;28;20031;-75
2023/12/02 16:01:42;;;;;;;2.20;1.10;;;;;;;;;;5102649;28;20108;-77
2023/12/02 16:05:23;;;;;;;2.92;1.20;;;;;;;;;;5096303;28;20079;-80
2023/12/02 16:09:04;;;;;;;1.85;1.20;;;;;;;;;;5092807;28;20048;-79
2023/12/02 16:12:45;;;;;;;4.30;1.30;;;;;;;;;;5094472;28;20564;-79
2023/12/02 16:16:05;;;;;;;5.00;1.50;;;;;;;;;;5092434;28;20131;-75
2023/12/02 16:19:46;;;;;;;4.78;1.98;;;;;;;;;;5091591;28;20130;-77
2023/12/02 16:23:29;;;;;;;4.07;1.20;;;;;;;;;;5090913;28;20064;-79
2023/12/02 16:27:09;;;;;;;4.32;1.20;;;;;;;;;;5083678;28;20086;-78
2023/12/02 16:30:50;;;;;;;3.58;1.30;;;;;;;;;;5088987;28;20138;-77
2023/12/02 16:34:30;;;;;;;3.65;1.63;;;;;;;;;;5090568;28;20043;-76
2023/12/02 16:38:10;;;;;;;4.10;1.35;;;;;;;;;;5091236;28;20593;-79
2023/12/02 16:41:51;;;;;;;4.95;1.48;;;;;;;;;;5096834;28;20074;-79
2023/12/02 16:45:34;;;;;;;3.10;1.25;;;;;;;;;;5093269;28;20426;-77
2023/12/02 16:49:14;;;;;;;2.72;1.33;;;;;;;;;;5088282;28;20048;-76
2023/12/02 16:52:55;;;;;;;3.97;1.60;;;;;;;;;;5082187;28;20059;-78
2023/12/02 16:56:35;;;;;;;2.72;1.50;;;;;;;;;;5090076;28;20047;-78
2023/12/02 17:00:05;;;;;;;4.05;1.60;;;;;;;;;;5089085;28;20048;-79
2023/12/02 17:03:51;;;;;;;6.18;1.40;;;;;;;;;;5093540;28;20860;-77
2023/12/02 17:07:31;;;;;;;5.47;1.90;;;;;;;;;;5087772;28;20066;-74
2023/12/02 17:10:49;;;;;;;5.25;1.40;;;;;;;;;;5088274;27;20051;-75
2023/12/02 17:14:32;;;;;;;3.95;1.23;;;;;;;;;;5086768;28;20032;-75
2023/12/02 17:18:14;;;;;;;4.22;1.70;;;;;;;;;;5101725;28;20672;-77
2023/12/02 17:22:05;;;;;;;1.75;1.00;;;;;;;;;;5099947;28;20394;-76
2023/12/02 17:25:43;;;;;;;3.63;1.48;;;;;;;;;;5095034;28;20059;-78
2023/12/02 17:29:23;;;;;;;3.17;1.45;;;;;;;;;;5096166;28;20066;-78
2023/12/02 17:33:04;;;;;;;5.60;1.40;;;;;;;;;;5091045;28;20043;-78
2023/12/02 17:36:45;;;;;;;7.93;1.50;;;;;;;;;;5092666;28;20132;-79
2023/12/02 17:40:27;;;;;;;4.07;1.40;;;;;;;;;;5094327;27;20047;-77
2023/12/02 17:44:08;;;;;;;4.95;1.70;;;;;;;;;;5093385;28;20140;-77
2023/12/02 17:47:48;;;;;;;4.95;1.92;;;;;;;;;;5100687;28;20073;-76
2023/12/02 17:51:29;;;;;;;6.82;2.05;;;;;;;;;;5092471;28;20043;-76
2023/12/02 17:55:10;;;;;;;4.25;2.03;;;;;;;;;;5087886;28;20044;-76
2023/12/02 17:58:49;;;;;;;6.97;1.85;;;;;;;;;;5088148;28;20577;-77
2023/12/02 18:02:31;;;;;;;8.20;1.80;;;;;;;;;;5090250;28;20132;-76
2023/12/02 18:06:13;;;;;;;3.72;1.83;;;;;;;;;;5090756;28;20429;-76
2023/12/02 18:09:52;;;;;;;9.40;2.25;;;;;;;;;;5091717;28;20386;-79
2023/12/02 18:13:33;;;;;;;9.48;1.80;;;;;;;;;;5084498;28;20462;-76
2023/12/02 18:17:14;;;;;;;4.50;2.00;;;;;;;;;;5093623;28;20056;-76
2023/12/02 18:20:54;;;;;;;4.97;1.70;;;;;;;;;;5090147;28;20059;-77
2023/12/02 18:24:41;;;;;;;4.95;1.88;;;;;;;;;;5094063;28;20482;-76
2023/12/02 18:28:18;;;;;;;5.70;1.50;;;;;;;;;;5087651;28;20052;-77
2023/12/02 18:32:00;;;;;;;3.40;1.40;;;;;;;;;;5091989;28;20047;-77
2023/12/02 18:35:40;;;;;;;4.78;1.65;;;;;;;;;;5086203;28;20064;-79
2023/12/02 18:39:24;;;;;;;5.30;2.17;;;;;;;;;;5095410;28;20681;-77
2023/12/02 18:43:05;;;;;;;11.18;2.15;;;;;;;;;;5091467;28;20100;-78
2023/12/02 18:46:46;;;;;;;3.53;1.67;;;;;;;;;;5085951;28;20923;-77
2023/12/02 18:50:27;;;;;;;4.80;1.73;;;;;;;;;;5090510;28;20059;-77
2023/12/02 18:54:07;;;;;;;4.93;1.70;;;;;;;;;;5095398;28;20047;-76
2023/12/02 18:57:47;;;;;;;2.20;1.38;;;;;;;;;;5089728;28;20456;-72
2023/12/02 19:01:28;;;;;;;2.55;1.20;;;;;;;;;;5089930;28;20040;-76
2023/12/02 19:05:09;;;;;;;4.28;1.27;;;;;;;;;;5088277;28;20043;-74
2023/12/02 19:08:12;;;;;;;1.92;1.13;;;;;;;;;;5088866;28;20097;-78
2023/12/02 19:10:40;;;;;;;7.20;1.20;;;;;;;;;;5088521;28;20054;-76
2023/12/02 19:13:09;;;;;;;4.05;1.70;;;;;;;;;;5093650;28;20055;-77
2023/12/02 19:15:36;;;;;;;5.82;1.48;;;;;;;;;;5097880;28;20040;-78
2023/12/02 19:18:02;;;;;;;3.85;1.40;;;;;;;;;;5099369;28;20980;-79
2023/12/02 19:20:29;;;;;;;5.88;1.55;;;;;;;;;;5074631;28;20082;-74
2023/12/02 19:22:56;;;;;;;3.33;1.70;;;;;;;;;;5094624;28;20661;-79
2023/12/02 19:25:24;;;;;;;3.38;1.10;;;;;;;;;;5097561;28;20058;-80
2023/12/02 19:27:50;;;;;;;3.40;1.40;;;;;;;;;;5075489;28;20066;-80
2023/12/02 19:30:16;;;;;;;5.20;1.73;;;;;;;;;;5075847;28;20050;-77
2023/12/02 19:32:43;;;;;;;11.68;1.60;;;;;;;;;;5102318;28;20047;-80
2023/12/02 19:35:11;;;;;;;6.43;1.90;;;;;;;;;;5100163;28;20056;-79
2023/12/02 19:37:42;;;;;;;8.00;2.00;;;;;;;;;;5074309;28;20090;-78
2023/12/02 19:40:09;;;;;;;6.05;1.80;;;;;;;;;;5057320;28;20117;-78